Accueil
METAR-TAF:

METAR-TAF

Aéroports :

Weno, Weno Island, Micronésie

Aéroport international de Chuuk

latitude: 07-28N, longitude: 151-51E, altitude: 3 m

Observation

Le bulletin a été fait il y a 1 heure et 2 minutes, à 00:51 UTC
Vent 10 kt de sud-est
Température 30°C
Humidité 89%
Pression 1009 hPa
Visibilité: 24.1 km
Nuages épars à une hauteur de 1400 ft, Cumulonimbus.
Nuages fragmentés à une hauteur de 12000 ft
Ciel couvert à une hauteur de 28000 ft
averses à proximité

METAR: PTKK 260051Z 14010KT 15SM VCSH SCT014CB BKN120 OVC280 30/28 A2980 RMK VCSH N-NE CB NW-NE-E MOV NW SLP093 T03030277

Heure: 11:53 (01:53 UTC)

Prévision

Le bulletin a été fait il y a 2 heures et 25 minutes, à 23:28 UTC
Prévision valable du 26 à 00 UTC au 26 à 24 UTC
Vent 7 kt de est/sud-est
Visibilité: 10 km
Nuages épars à une hauteur de 1400 ft
Nuages épars à une hauteur de 12000 ft
averses à proximité

TAF: PTKK 252328Z 2600/2624 11007KT P6SM VCSH SCT014 SCT120

Observations et prévisions météorologiques de plus de 4000 aéroports (messages METAR et TAF).

Les stations disponibles sont représentées par des disques jaunes et rouges sur la carte.

Passer la souris dessus pour voir le nom de la station.

Cliquer dessus pour voir les observations et prévisions météorologiques.

Pour changer de carte: cliquez sur les boutons verts avec une croix noire pour zoomer, sur le bouton vert avec un tiret pour effectuer un zoom arrière, ou sur les flèches vertes pour les cartes adjacentes.


METAR-TAF: